sensor_id;sensor_type;location;lat;lon;timestamp;P1;durP1;ratioP1;P2;durP2;ratioP2
35110;SDS011;21290;50.158;8.658;2023-12-20T00:01:05;22.10;;;13.70;;
35110;SDS011;21290;50.158;8.658;2023-12-20T00:03:32;22.45;;;13.80;;
35110;SDS011;21290;50.158;8.658;2023-12-20T00:06:08;20.65;;;12.55;;
35110;SDS011;21290;50.158;8.658;2023-12-20T00:08:35;21.48;;;13.70;;
35110;SDS011;21290;50.158;8.658;2023-12-20T00:11:02;22.35;;;13.93;;
35110;SDS011;21290;50.158;8.658;2023-12-20T00:13:29;19.25;;;12.13;;
35110;SDS011;21290;50.158;8.658;2023-12-20T00:15:55;21.50;;;12.93;;
35110;SDS011;21290;50.158;8.658;2023-12-20T00:18:22;22.45;;;14.18;;
35110;SDS011;21290;50.158;8.658;2023-12-20T00:20:49;23.20;;;13.35;;
35110;SDS011;21290;50.158;8.658;2023-12-20T00:23:16;19.02;;;12.55;;
35110;SDS011;21290;50.158;8.658;2023-12-20T00:25:43;22.02;;;11.77;;
35110;SDS011;21290;50.158;8.658;2023-12-20T00:28:09;19.88;;;12.48;;
35110;SDS011;21290;50.158;8.658;2023-12-20T00:30:36;22.83;;;11.25;;
35110;SDS011;21290;50.158;8.658;2023-12-20T00:33:03;15.48;;;11.18;;
35110;SDS011;21290;50.158;8.658;2023-12-20T00:35:30;17.42;;;11.60;;
35110;SDS011;21290;50.158;8.658;2023-12-20T00:37:57;18.25;;;11.52;;
35110;SDS011;21290;50.158;8.658;2023-12-20T00:40:24;19.95;;;11.73;;
35110;SDS011;21290;50.158;8.658;2023-12-20T00:42:51;16.92;;;10.02;;
35110;SDS011;21290;50.158;8.658;2023-12-20T00:45:18;17.33;;;11.57;;
35110;SDS011;21290;50.158;8.658;2023-12-20T00:47:44;14.70;;;10.50;;
35110;SDS011;21290;50.158;8.658;2023-12-20T00:50:12;16.67;;;10.88;;
35110;SDS011;21290;50.158;8.658;2023-12-20T00:52:39;15.32;;;10.70;;
35110;SDS011;21290;50.158;8.658;2023-12-20T00:55:05;16.23;;;10.27;;
35110;SDS011;21290;50.158;8.658;2023-12-20T00:57:32;14.27;;;10.30;;
35110;SDS011;21290;50.158;8.658;2023-12-20T00:59:59;16.20;;;10.65;;
35110;SDS011;21290;50.158;8.658;2023-12-20T01:02:26;14.68;;;9.32;;
35110;SDS011;21290;50.158;8.658;2023-12-20T01:04:53;15.95;;;11.27;;
35110;SDS011;21290;50.158;8.658;2023-12-20T01:07:19;20.63;;;10.07;;
35110;SDS011;21290;50.158;8.658;2023-12-20T01:09:46;13.75;;;9.77;;
35110;SDS011;21290;50.158;8.658;2023-12-20T01:12:13;12.90;;;9.98;;
35110;SDS011;21290;50.158;8.658;2023-12-20T01:14:40;14.10;;;10.43;;
35110;SDS011;21290;50.158;8.658;2023-12-20T01:17:06;14.60;;;10.05;;
35110;SDS011;21290;50.158;8.658;2023-12-20T01:19:33;15.32;;;10.15;;
35110;SDS011;21290;50.158;8.658;2023-12-20T01:22:00;14.60;;;10.30;;
35110;SDS011;21290;50.158;8.658;2023-12-20T01:24:26;14.07;;;9.18;;
35110;SDS011;21290;50.158;8.658;2023-12-20T01:26:53;13.45;;;9.63;;
35110;SDS011;21290;50.158;8.658;2023-12-20T01:29:20;13.30;;;9.48;;
35110;SDS011;21290;50.158;8.658;2023-12-20T01:31:47;12.10;;;8.88;;
35110;SDS011;21290;50.158;8.658;2023-12-20T01:34:13;15.88;;;10.20;;
35110;SDS011;21290;50.158;8.658;2023-12-20T01:36:40;12.77;;;9.07;;
35110;SDS011;21290;50.158;8.658;2023-12-20T01:39:07;14.27;;;9.20;;
35110;SDS011;21290;50.158;8.658;2023-12-20T01:41:50;13.73;;;9.23;;
35110;SDS011;21290;50.158;8.658;2023-12-20T01:44:17;14.38;;;9.43;;
35110;SDS011;21290;50.158;8.658;2023-12-20T01:46:43;14.73;;;9.70;;
35110;SDS011;21290;50.158;8.658;2023-12-20T01:49:11;12.43;;;9.00;;
35110;SDS011;21290;50.158;8.658;2023-12-20T01:51:37;12.80;;;8.48;;
35110;SDS011;21290;50.158;8.658;2023-12-20T01:54:04;15.40;;;9.38;;
35110;SDS011;21290;50.158;8.658;2023-12-20T01:56:31;15.25;;;10.15;;
35110;SDS011;21290;50.158;8.658;2023-12-20T01:58:59;11.63;;;8.88;;
35110;SDS011;21290;50.158;8.658;2023-12-20T02:01:27;13.65;;;9.73;;
35110;SDS011;21290;50.158;8.658;2023-12-20T02:03:54;13.10;;;8.93;;
35110;SDS011;21290;50.158;8.658;2023-12-20T02:06:22;19.65;;;10.38;;
35110;SDS011;21290;50.158;8.658;2023-12-20T02:08:50;13.80;;;9.55;;
35110;SDS011;21290;50.158;8.658;2023-12-20T02:11:17;15.40;;;9.38;;
35110;SDS011;21290;50.158;8.658;2023-12-20T02:13:44;12.85;;;9.55;;
35110;SDS011;21290;50.158;8.658;2023-12-20T02:16:10;13.82;;;8.77;;
35110;SDS011;21290;50.158;8.658;2023-12-20T02:18:37;13.52;;;8.48;;
35110;SDS011;21290;50.158;8.658;2023-12-20T02:21:05;11.90;;;9.15;;
35110;SDS011;21290;50.158;8.658;2023-12-20T02:23:32;12.95;;;9.63;;
35110;SDS011;21290;50.158;8.658;2023-12-20T02:25:59;17.02;;;8.93;;
35110;SDS011;21290;50.158;8.658;2023-12-20T02:28:25;12.25;;;8.02;;
35110;SDS011;21290;50.158;8.658;2023-12-20T02:30:53;11.85;;;8.70;;
35110;SDS011;21290;50.158;8.658;2023-12-20T02:33:19;11.43;;;8.43;;
35110;SDS011;21290;50.158;8.658;2023-12-20T02:35:46;12.25;;;9.07;;
35110;SDS011;21290;50.158;8.658;2023-12-20T02:38:14;13.80;;;8.45;;
35110;SDS011;21290;50.158;8.658;2023-12-20T02:40:40;13.38;;;8.60;;
35110;SDS011;21290;50.158;8.658;2023-12-20T02:43:14;13.60;;;8.75;;
35110;SDS011;21290;50.158;8.658;2023-12-20T02:45:41;11.10;;;8.38;;
35110;SDS011;21290;50.158;8.658;2023-12-20T02:48:08;12.57;;;8.45;;
35110;SDS011;21290;50.158;8.658;2023-12-20T02:50:35;9.88;;;7.93;;
35110;SDS011;21290;50.158;8.658;2023-12-20T02:53:01;12.27;;;7.63;;
35110;SDS011;21290;50.158;8.658;2023-12-20T02:55:28;13.20;;;8.07;;
35110;SDS011;21290;50.158;8.658;2023-12-20T02:57:54;10.90;;;7.65;;
35110;SDS011;21290;50.158;8.658;2023-12-20T03:00:21;10.98;;;8.18;;
35110;SDS011;21290;50.158;8.658;2023-12-20T03:02:48;12.63;;;7.97;;
35110;SDS011;21290;50.158;8.658;2023-12-20T03:05:14;13.35;;;8.02;;
35110;SDS011;21290;50.158;8.658;2023-12-20T03:07:41;10.75;;;7.82;;
35110;SDS011;21290;50.158;8.658;2023-12-20T03:10:08;11.75;;;7.57;;
35110;SDS011;21290;50.158;8.658;2023-12-20T03:12:45;11.95;;;7.65;;
35110;SDS011;21290;50.158;8.658;2023-12-20T03:15:12;10.60;;;7.28;;
35110;SDS011;21290;50.158;8.658;2023-12-20T03:17:38;9.80;;;7.47;;
35110;SDS011;21290;50.158;8.658;2023-12-20T03:20:06;10.57;;;7.80;;
35110;SDS011;21290;50.158;8.658;2023-12-20T03:22:33;13.55;;;7.38;;
35110;SDS011;21290;50.158;8.658;2023-12-20T03:25:00;12.20;;;7.30;;
35110;SDS011;21290;50.158;8.658;2023-12-20T03:27:27;10.55;;;7.30;;
35110;SDS011;21290;50.158;8.658;2023-12-20T03:29:53;10.63;;;7.97;;
35110;SDS011;21290;50.158;8.658;2023-12-20T03:32:21;12.57;;;7.97;;
35110;SDS011;21290;50.158;8.658;2023-12-20T03:34:47;12.95;;;7.65;;
35110;SDS011;21290;50.158;8.658;2023-12-20T03:37:14;11.82;;;7.53;;
35110;SDS011;21290;50.158;8.658;2023-12-20T03:39:41;10.95;;;7.53;;
35110;SDS011;21290;50.158;8.658;2023-12-20T03:42:08;11.45;;;7.75;;
35110;SDS011;21290;50.158;8.658;2023-12-20T03:44:37;12.43;;;7.63;;
35110;SDS011;21290;50.158;8.658;2023-12-20T03:47:05;9.85;;;7.43;;
35110;SDS011;21290;50.158;8.658;2023-12-20T03:49:32;10.35;;;7.30;;
35110;SDS011;21290;50.158;8.658;2023-12-20T03:51:59;11.23;;;7.32;;
35110;SDS011;21290;50.158;8.658;2023-12-20T03:54:25;9.82;;;6.63;;
35110;SDS011;21290;50.158;8.658;2023-12-20T03:56:52;13.20;;;7.88;;
35110;SDS011;21290;50.158;8.658;2023-12-20T03:59:19;10.35;;;6.60;;
35110;SDS011;21290;50.158;8.658;2023-12-20T04:01:45;9.43;;;6.30;;
35110;SDS011;21290;50.158;8.658;2023-12-20T04:04:12;11.05;;;6.93;;
35110;SDS011;21290;50.158;8.658;2023-12-20T04:06:39;11.60;;;7.40;;
35110;SDS011;21290;50.158;8.658;2023-12-20T04:09:06;12.38;;;6.03;;
35110;SDS011;21290;50.158;8.658;2023-12-20T04:11:35;8.98;;;6.20;;
35110;SDS011;21290;50.158;8.658;2023-12-20T04:14:02;10.80;;;6.78;;
35110;SDS011;21290;50.158;8.658;2023-12-20T04:16:31;10.02;;;6.60;;
35110;SDS011;21290;50.158;8.658;2023-12-20T04:18:57;10.88;;;6.90;;
35110;SDS011;21290;50.158;8.658;2023-12-20T04:21:24;9.38;;;7.18;;
35110;SDS011;21290;50.158;8.658;2023-12-20T04:23:51;10.27;;;6.95;;
35110;SDS011;21290;50.158;8.658;2023-12-20T04:26:17;12.77;;;7.18;;
35110;SDS011;21290;50.158;8.658;2023-12-20T04:28:44;9.88;;;6.95;;
35110;SDS011;21290;50.158;8.658;2023-12-20T04:31:10;10.50;;;7.18;;
35110;SDS011;21290;50.158;8.658;2023-12-20T04:33:37;10.38;;;6.95;;
35110;SDS011;21290;50.158;8.658;2023-12-20T04:36:04;10.70;;;7.30;;
35110;SDS011;21290;50.158;8.658;2023-12-20T04:38:31;9.50;;;6.93;;
35110;SDS011;21290;50.158;8.658;2023-12-20T04:40:57;15.98;;;7.35;;
35110;SDS011;21290;50.158;8.658;2023-12-20T04:43:24;13.38;;;7.20;;
35110;SDS011;21290;50.158;8.658;2023-12-20T04:45:51;8.98;;;6.70;;
35110;SDS011;21290;50.158;8.658;2023-12-20T04:48:18;15.40;;;7.05;;
35110;SDS011;21290;50.158;8.658;2023-12-20T04:50:44;13.25;;;7.95;;
35110;SDS011;21290;50.158;8.658;2023-12-20T04:53:11;14.20;;;7.97;;
35110;SDS011;21290;50.158;8.658;2023-12-20T04:55:38;13.52;;;7.35;;
35110;SDS011;21290;50.158;8.658;2023-12-20T04:58:05;11.43;;;7.95;;
35110;SDS011;21290;50.158;8.658;2023-12-20T05:00:32;10.70;;;7.15;;
35110;SDS011;21290;50.158;8.658;2023-12-20T05:02:59;13.07;;;7.85;;
35110;SDS011;21290;50.158;8.658;2023-12-20T05:05:26;10.50;;;7.15;;
35110;SDS011;21290;50.158;8.658;2023-12-20T05:07:53;12.52;;;8.15;;
35110;SDS011;21290;50.158;8.658;2023-12-20T05:10:19;12.43;;;7.65;;
35110;SDS011;21290;50.158;8.658;2023-12-20T05:12:46;16.55;;;8.63;;
35110;SDS011;21290;50.158;8.658;2023-12-20T05:15:13;10.75;;;6.90;;
35110;SDS011;21290;50.158;8.658;2023-12-20T05:17:39;14.73;;;7.97;;
35110;SDS011;21290;50.158;8.658;2023-12-20T05:20:07;11.75;;;7.03;;
35110;SDS011;21290;50.158;8.658;2023-12-20T05:22:34;14.45;;;6.85;;
35110;SDS011;21290;50.158;8.658;2023-12-20T05:25:01;15.40;;;6.88;;
35110;SDS011;21290;50.158;8.658;2023-12-20T05:27:27;10.68;;;6.68;;
35110;SDS011;21290;50.158;8.658;2023-12-20T05:29:54;15.68;;;7.75;;
35110;SDS011;21290;50.158;8.658;2023-12-20T05:32:23;13.25;;;8.82;;
35110;SDS011;21290;50.158;8.658;2023-12-20T05:34:51;12.50;;;8.23;;
35110;SDS011;21290;50.158;8.658;2023-12-20T05:37:18;13.13;;;7.90;;
35110;SDS011;21290;50.158;8.658;2023-12-20T05:39:44;11.65;;;7.60;;
35110;SDS011;21290;50.158;8.658;2023-12-20T05:42:11;18.30;;;7.78;;
35110;SDS011;21290;50.158;8.658;2023-12-20T05:44:37;11.40;;;7.32;;
35110;SDS011;21290;50.158;8.658;2023-12-20T05:47:04;11.00;;;7.97;;
35110;SDS011;21290;50.158;8.658;2023-12-20T05:49:31;13.40;;;8.60;;
35110;SDS011;21290;50.158;8.658;2023-12-20T05:51:57;14.30;;;7.80;;
35110;SDS011;21290;50.158;8.658;2023-12-20T05:54:24;11.13;;;6.82;;
35110;SDS011;21290;50.158;8.658;2023-12-20T05:56:51;11.18;;;7.18;;
35110;SDS011;21290;50.158;8.658;2023-12-20T05:59:17;11.43;;;6.40;;
35110;SDS011;21290;50.158;8.658;2023-12-20T06:01:44;13.32;;;6.30;;
35110;SDS011;21290;50.158;8.658;2023-12-20T06:04:11;14.18;;;6.60;;
35110;SDS011;21290;50.158;8.658;2023-12-20T06:06:41;11.02;;;5.82;;
35110;SDS011;21290;50.158;8.658;2023-12-20T06:09:08;11.07;;;5.07;;
35110;SDS011;21290;50.158;8.658;2023-12-20T06:11:35;10.43;;;5.28;;
35110;SDS011;21290;50.158;8.658;2023-12-20T06:14:02;10.68;;;4.88;;
35110;SDS011;21290;50.158;8.658;2023-12-20T06:16:29;11.00;;;5.45;;
35110;SDS011;21290;50.158;8.658;2023-12-20T06:18:57;13.23;;;4.78;;
35110;SDS011;21290;50.158;8.658;2023-12-20T06:21:24;13.48;;;4.20;;
35110;SDS011;21290;50.158;8.658;2023-12-20T06:23:51;10.95;;;3.40;;
35110;SDS011;21290;50.158;8.658;2023-12-20T06:26:17;11.18;;;3.08;;
35110;SDS011;21290;50.158;8.658;2023-12-20T06:28:44;6.68;;;2.47;;
35110;SDS011;21290;50.158;8.658;2023-12-20T06:31:11;8.02;;;2.72;;
35110;SDS011;21290;50.158;8.658;2023-12-20T06:33:38;7.57;;;2.45;;
35110;SDS011;21290;50.158;8.658;2023-12-20T06:38:34;6.00;;;2.30;;
35110;SDS011;21290;50.158;8.658;2023-12-20T06:41:00;13.15;;;2.45;;
35110;SDS011;21290;50.158;8.658;2023-12-20T06:43:27;5.88;;;2.83;;
35110;SDS011;21290;50.158;8.658;2023-12-20T06:46:11;11.57;;;2.90;;
35110;SDS011;21290;50.158;8.658;2023-12-20T06:48:39;14.93;;;3.75;;
35110;SDS011;21290;50.158;8.658;2023-12-20T06:51:10;16.88;;;3.30;;
35110;SDS011;21290;50.158;8.658;2023-12-20T06:53:39;14.30;;;3.30;;
35110;SDS011;21290;50.158;8.658;2023-12-20T06:56:05;6.97;;;2.70;;
35110;SDS011;21290;50.158;8.658;2023-12-20T06:58:33;8.55;;;2.70;;
35110;SDS011;21290;50.158;8.658;2023-12-20T07:01:00;11.77;;;2.85;;
35110;SDS011;21290;50.158;8.658;2023-12-20T07:03:27;8.27;;;2.85;;
35110;SDS011;21290;50.158;8.658;2023-12-20T07:05:53;9.90;;;3.03;;
35110;SDS011;21290;50.158;8.658;2023-12-20T07:08:20;14.80;;;3.70;;
35110;SDS011;21290;50.158;8.658;2023-12-20T07:10:47;5.50;;;2.70;;
35110;SDS011;21290;50.158;8.658;2023-12-20T07:13:13;9.77;;;3.33;;
35110;SDS011;21290;50.158;8.658;2023-12-20T07:15:40;4.32;;;2.63;;
35110;SDS011;21290;50.158;8.658;2023-12-20T07:18:07;8.93;;;2.90;;
35110;SDS011;21290;50.158;8.658;2023-12-20T07:20:34;7.88;;;2.95;;
35110;SDS011;21290;50.158;8.658;2023-12-20T07:23:00;9.48;;;3.08;;
35110;SDS011;21290;50.158;8.658;2023-12-20T07:25:27;10.10;;;3.30;;
35110;SDS011;21290;50.158;8.658;2023-12-20T07:27:54;8.95;;;4.63;;
35110;SDS011;21290;50.158;8.658;2023-12-20T07:30:21;12.95;;;3.72;;
35110;SDS011;21290;50.158;8.658;2023-12-20T07:32:48;9.10;;;3.22;;
35110;SDS011;21290;50.158;8.658;2023-12-20T07:35:15;7.75;;;3.67;;
35110;SDS011;21290;50.158;8.658;2023-12-20T07:37:42;8.20;;;3.47;;
35110;SDS011;21290;50.158;8.658;2023-12-20T07:40:09;7.57;;;3.30;;
35110;SDS011;21290;50.158;8.658;2023-12-20T07:42:36;10.52;;;3.40;;
35110;SDS011;21290;50.158;8.658;2023-12-20T07:45:03;7.85;;;3.50;;
35110;SDS011;21290;50.158;8.658;2023-12-20T07:47:30;12.98;;;3.42;;
35110;SDS011;21290;50.158;8.658;2023-12-20T07:49:57;10.45;;;3.80;;
35110;SDS011;21290;50.158;8.658;2023-12-20T07:52:24;9.23;;;3.08;;
35110;SDS011;21290;50.158;8.658;2023-12-20T07:54:50;17.27;;;8.40;;
35110;SDS011;21290;50.158;8.658;2023-12-20T07:57:17;11.07;;;4.18;;
35110;SDS011;21290;50.158;8.658;2023-12-20T07:59:44;8.13;;;4.00;;
35110;SDS011;21290;50.158;8.658;2023-12-20T08:02:11;8.35;;;3.17;;
35110;SDS011;21290;50.158;8.658;2023-12-20T08:04:38;8.55;;;3.33;;
35110;SDS011;21290;50.158;8.658;2023-12-20T08:07:04;12.07;;;3.92;;
35110;SDS011;21290;50.158;8.658;2023-12-20T08:09:31;11.32;;;3.50;;
35110;SDS011;21290;50.158;8.658;2023-12-20T08:11:59;11.10;;;4.20;;
35110;SDS011;21290;50.158;8.658;2023-12-20T08:14:26;12.15;;;3.15;;
35110;SDS011;21290;50.158;8.658;2023-12-20T08:16:53;7.18;;;2.92;;
35110;SDS011;21290;50.158;8.658;2023-12-20T08:19:19;14.65;;;3.25;;
35110;SDS011;21290;50.158;8.658;2023-12-20T08:21:46;10.02;;;3.13;;
35110;SDS011;21290;50.158;8.658;2023-12-20T08:24:13;9.25;;;3.00;;
35110;SDS011;21290;50.158;8.658;2023-12-20T08:26:39;16.67;;;3.05;;
35110;SDS011;21290;50.158;8.658;2023-12-20T08:29:06;9.75;;;3.83;;
35110;SDS011;21290;50.158;8.658;2023-12-20T08:31:33;7.30;;;3.03;;
35110;SDS011;21290;50.158;8.658;2023-12-20T08:34:00;12.98;;;3.17;;
35110;SDS011;21290;50.158;8.658;2023-12-20T08:36:27;13.95;;;4.32;;
35110;SDS011;21290;50.158;8.658;2023-12-20T08:38:54;10.63;;;3.10;;
35110;SDS011;21290;50.158;8.658;2023-12-20T08:41:21;9.25;;;2.90;;
35110;SDS011;21290;50.158;8.658;2023-12-20T08:43:48;6.78;;;2.22;;
35110;SDS011;21290;50.158;8.658;2023-12-20T08:46:15;8.88;;;2.58;;
35110;SDS011;21290;50.158;8.658;2023-12-20T08:48:41;9.10;;;2.25;;
35110;SDS011;21290;50.158;8.658;2023-12-20T08:51:09;6.55;;;2.60;;
35110;SDS011;21290;50.158;8.658;2023-12-20T08:53:36;5.65;;;1.70;;
35110;SDS011;21290;50.158;8.658;2023-12-20T08:56:03;5.80;;;2.00;;
35110;SDS011;21290;50.158;8.658;2023-12-20T08:58:30;11.88;;;2.58;;
35110;SDS011;21290;50.158;8.658;2023-12-20T09:00:57;9.15;;;2.20;;
35110;SDS011;21290;50.158;8.658;2023-12-20T09:03:24;9.00;;;2.25;;
35110;SDS011;21290;50.158;8.658;2023-12-20T09:05:51;11.73;;;2.55;;
35110;SDS011;21290;50.158;8.658;2023-12-20T09:08:17;8.27;;;2.05;;
35110;SDS011;21290;50.158;8.658;2023-12-20T09:10:44;6.70;;;1.83;;
35110;SDS011;21290;50.158;8.658;2023-12-20T09:13:11;9.23;;;1.88;;
35110;SDS011;21290;50.158;8.658;2023-12-20T09:15:38;9.40;;;2.67;;
35110;SDS011;21290;50.158;8.658;2023-12-20T09:18:05;10.90;;;2.28;;
35110;SDS011;21290;50.158;8.658;2023-12-20T09:20:32;6.97;;;2.30;;
35110;SDS011;21290;50.158;8.658;2023-12-20T09:22:59;7.70;;;2.10;;
35110;SDS011;21290;50.158;8.658;2023-12-20T09:25:26;10.52;;;2.35;;
35110;SDS011;21290;50.158;8.658;2023-12-20T09:27:53;6.28;;;2.05;;
35110;SDS011;21290;50.158;8.658;2023-12-20T09:30:20;6.05;;;2.10;;
35110;SDS011;21290;50.158;8.658;2023-12-20T09:32:53;7.97;;;2.10;;
35110;SDS011;21290;50.158;8.658;2023-12-20T09:35:20;11.10;;;2.40;;
35110;SDS011;21290;50.158;8.658;2023-12-20T09:37:47;4.20;;;2.20;;
35110;SDS011;21290;50.158;8.658;2023-12-20T09:40:14;11.88;;;2.38;;
35110;SDS011;21290;50.158;8.658;2023-12-20T09:45:23;7.80;;;2.67;;
35110;SDS011;21290;50.158;8.658;2023-12-20T09:47:51;8.15;;;2.30;;
35110;SDS011;21290;50.158;8.658;2023-12-20T09:50:22;11.02;;;2.55;;
35110;SDS011;21290;50.158;8.658;2023-12-20T09:52:50;8.82;;;2.38;;
35110;SDS011;21290;50.158;8.658;2023-12-20T09:55:19;10.52;;;2.65;;
35110;SDS011;21290;50.158;8.658;2023-12-20T09:57:47;7.85;;;2.50;;
35110;SDS011;21290;50.158;8.658;2023-12-20T10:00:15;9.25;;;2.90;;
35110;SDS011;21290;50.158;8.658;2023-12-20T10:02:58;6.47;;;2.60;;
35110;SDS011;21290;50.158;8.658;2023-12-20T10:05:27;11.50;;;2.83;;
35110;SDS011;21290;50.158;8.658;2023-12-20T10:10:23;11.40;;;2.95;;
35110;SDS011;21290;50.158;8.658;2023-12-20T10:13:07;12.80;;;2.45;;
35110;SDS011;21290;50.158;8.658;2023-12-20T10:15:35;13.38;;;2.90;;
35110;SDS011;21290;50.158;8.658;2023-12-20T10:18:03;11.40;;;4.03;;
35110;SDS011;21290;50.158;8.658;2023-12-20T10:20:30;11.52;;;3.40;;
35110;SDS011;21290;50.158;8.658;2023-12-20T10:22:58;13.35;;;3.13;;
35110;SDS011;21290;50.158;8.658;2023-12-20T10:25:26;10.13;;;2.78;;
35110;SDS011;21290;50.158;8.658;2023-12-20T10:28:10;8.07;;;3.35;;
35110;SDS011;21290;50.158;8.658;2023-12-20T10:30:41;9.63;;;2.50;;
35110;SDS011;21290;50.158;8.658;2023-12-20T10:33:09;17.05;;;3.45;;
35110;SDS011;21290;50.158;8.658;2023-12-20T10:35:39;10.00;;;2.80;;
35110;SDS011;21290;50.158;8.658;2023-12-20T10:38:11;8.90;;;3.25;;
35110;SDS011;21290;50.158;8.658;2023-12-20T10:40:40;8.75;;;2.83;;
35110;SDS011;21290;50.158;8.658;2023-12-20T10:43:07;11.38;;;3.33;;
35110;SDS011;21290;50.158;8.658;2023-12-20T10:45:35;9.63;;;2.70;;
35110;SDS011;21290;50.158;8.658;2023-12-20T10:48:02;9.38;;;3.10;;
35110;SDS011;21290;50.158;8.658;2023-12-20T10:50:30;9.07;;;3.28;;
35110;SDS011;21290;50.158;8.658;2023-12-20T10:52:58;6.22;;;2.35;;
35110;SDS011;21290;50.158;8.658;2023-12-20T10:55:26;9.23;;;1.95;;
35110;SDS011;21290;50.158;8.658;2023-12-20T10:58:08;9.18;;;2.28;;
35110;SDS011;21290;50.158;8.658;2023-12-20T11:00:38;9.02;;;2.45;;
35110;SDS011;21290;50.158;8.658;2023-12-20T11:03:08;7.78;;;2.33;;
35110;SDS011;21290;50.158;8.658;2023-12-20T11:08:26;5.80;;;2.08;;
35110;SDS011;21290;50.158;8.658;2023-12-20T11:11:02;7.50;;;2.38;;
35110;SDS011;21290;50.158;8.658;2023-12-20T11:13:59;8.45;;;2.20;;
35110;SDS011;21290;50.158;8.658;2023-12-20T11:16:31;5.78;;;1.85;;
35110;SDS011;21290;50.158;8.658;2023-12-20T11:19:13;8.75;;;2.35;;
35110;SDS011;21290;50.158;8.658;2023-12-20T11:21:40;7.07;;;2.17;;
35110;SDS011;21290;50.158;8.658;2023-12-20T11:24:07;8.07;;;2.05;;
35110;SDS011;21290;50.158;8.658;2023-12-20T11:26:35;8.65;;;2.38;;
35110;SDS011;21290;50.158;8.658;2023-12-20T11:29:28;7.78;;;2.10;;
35110;SDS011;21290;50.158;8.658;2023-12-20T11:31:55;6.05;;;2.20;;
35110;SDS011;21290;50.158;8.658;2023-12-20T11:34:22;12.63;;;2.95;;
35110;SDS011;21290;50.158;8.658;2023-12-20T11:37:00;6.82;;;2.38;;
35110;SDS011;21290;50.158;8.658;2023-12-20T11:39:29;7.38;;;2.13;;
35110;SDS011;21290;50.158;8.658;2023-12-20T11:41:57;9.90;;;2.20;;
35110;SDS011;21290;50.158;8.658;2023-12-20T11:44:31;5.78;;;2.22;;
35110;SDS011;21290;50.158;8.658;2023-12-20T11:46:58;6.50;;;2.15;;
35110;SDS011;21290;50.158;8.658;2023-12-20T11:49:25;6.55;;;2.55;;
35110;SDS011;21290;50.158;8.658;2023-12-20T11:51:52;5.60;;;1.90;;
35110;SDS011;21290;50.158;8.658;2023-12-20T11:54:18;9.55;;;2.10;;
35110;SDS011;21290;50.158;8.658;2023-12-20T11:56:45;7.95;;;2.08;;
35110;SDS011;21290;50.158;8.658;2023-12-20T11:59:13;8.48;;;2.10;;
35110;SDS011;21290;50.158;8.658;2023-12-20T12:01:49;6.68;;;1.90;;
35110;SDS011;21290;50.158;8.658;2023-12-20T12:04:21;10.27;;;2.20;;
35110;SDS011;21290;50.158;8.658;2023-12-20T12:06:48;9.27;;;2.00;;
35110;SDS011;21290;50.158;8.658;2023-12-20T12:09:14;5.25;;;1.75;;
35110;SDS011;21290;50.158;8.658;2023-12-20T12:11:41;9.65;;;2.28;;
35110;SDS011;21290;50.158;8.658;2023-12-20T12:14:08;6.45;;;1.83;;
35110;SDS011;21290;50.158;8.658;2023-12-20T12:16:36;10.77;;;2.10;;
35110;SDS011;21290;50.158;8.658;2023-12-20T12:19:03;5.85;;;2.00;;
35110;SDS011;21290;50.158;8.658;2023-12-20T12:21:30;8.50;;;2.10;;
35110;SDS011;21290;50.158;8.658;2023-12-20T12:24:09;7.32;;;2.35;;
35110;SDS011;21290;50.158;8.658;2023-12-20T12:26:36;6.90;;;1.80;;
35110;SDS011;21290;50.158;8.658;2023-12-20T12:29:03;4.47;;;1.73;;
35110;SDS011;21290;50.158;8.658;2023-12-20T12:31:33;5.43;;;1.75;;
35110;SDS011;21290;50.158;8.658;2023-12-20T12:34:00;5.20;;;1.88;;
35110;SDS011;21290;50.158;8.658;2023-12-20T12:36:28;7.13;;;2.30;;
35110;SDS011;21290;50.158;8.658;2023-12-20T12:38:58;8.77;;;2.22;;
35110;SDS011;21290;50.158;8.658;2023-12-20T12:41:31;6.05;;;2.10;;
35110;SDS011;21290;50.158;8.658;2023-12-20T12:43:57;7.72;;;1.80;;
35110;SDS011;21290;50.158;8.658;2023-12-20T12:46:36;5.05;;;1.92;;
35110;SDS011;21290;50.158;8.658;2023-12-20T12:49:03;6.30;;;1.88;;
35110;SDS011;21290;50.158;8.658;2023-12-20T12:51:30;8.40;;;2.50;;
35110;SDS011;21290;50.158;8.658;2023-12-20T12:53:57;7.25;;;1.60;;
35110;SDS011;21290;50.158;8.658;2023-12-20T12:56:24;8.45;;;2.10;;
35110;SDS011;21290;50.158;8.658;2023-12-20T12:58:51;10.27;;;2.33;;
35110;SDS011;21290;50.158;8.658;2023-12-20T13:01:17;7.95;;;2.20;;
35110;SDS011;21290;50.158;8.658;2023-12-20T13:03:44;16.38;;;2.38;;
35110;SDS011;21290;50.158;8.658;2023-12-20T13:06:11;11.02;;;2.10;;
35110;SDS011;21290;50.158;8.658;2023-12-20T13:08:38;8.68;;;1.85;;
35110;SDS011;21290;50.158;8.658;2023-12-20T13:11:04;8.55;;;1.98;;
35110;SDS011;21290;50.158;8.658;2023-12-20T13:13:31;8.15;;;1.80;;
35110;SDS011;21290;50.158;8.658;2023-12-20T13:15:58;6.30;;;1.85;;
35110;SDS011;21290;50.158;8.658;2023-12-20T13:18:24;6.20;;;1.70;;
35110;SDS011;21290;50.158;8.658;2023-12-20T13:20:51;6.63;;;1.67;;
35110;SDS011;21290;50.158;8.658;2023-12-20T13:23:18;8.43;;;1.67;;
35110;SDS011;21290;50.158;8.658;2023-12-20T13:25:44;7.28;;;1.75;;
35110;SDS011;21290;50.158;8.658;2023-12-20T13:28:14;5.43;;;1.80;;
35110;SDS011;21290;50.158;8.658;2023-12-20T13:30:41;11.25;;;2.17;;
35110;SDS011;21290;50.158;8.658;2023-12-20T13:33:08;6.97;;;2.22;;
35110;SDS011;21290;50.158;8.658;2023-12-20T13:35:35;6.88;;;2.53;;
35110;SDS011;21290;50.158;8.658;2023-12-20T13:38:01;9.70;;;2.80;;
35110;SDS011;21290;50.158;8.658;2023-12-20T13:40:28;17.45;;;2.15;;
35110;SDS011;21290;50.158;8.658;2023-12-20T13:42:55;6.28;;;1.65;;
35110;SDS011;21290;50.158;8.658;2023-12-20T13:45:22;6.70;;;2.00;;
35110;SDS011;21290;50.158;8.658;2023-12-20T13:47:49;6.03;;;1.95;;
35110;SDS011;21290;50.158;8.658;2023-12-20T13:50:16;9.13;;;2.30;;
35110;SDS011;21290;50.158;8.658;2023-12-20T13:52:43;10.73;;;2.45;;
35110;SDS011;21290;50.158;8.658;2023-12-20T13:55:09;9.13;;;2.65;;
35110;SDS011;21290;50.158;8.658;2023-12-20T13:57:36;7.82;;;2.00;;
35110;SDS011;21290;50.158;8.658;2023-12-20T14:00:20;6.78;;;2.00;;
35110;SDS011;21290;50.158;8.658;2023-12-20T14:02:46;6.20;;;2.55;;
35110;SDS011;21290;50.158;8.658;2023-12-20T14:05:14;9.00;;;2.10;;
35110;SDS011;21290;50.158;8.658;2023-12-20T14:07:44;4.32;;;1.88;;
35110;SDS011;21290;50.158;8.658;2023-12-20T14:10:12;10.60;;;2.37;;
35110;SDS011;21290;50.158;8.658;2023-12-20T14:12:42;7.20;;;2.05;;
35110;SDS011;21290;50.158;8.658;2023-12-20T14:15:10;7.15;;;2.30;;
35110;SDS011;21290;50.158;8.658;2023-12-20T14:17:39;5.82;;;2.55;;
35110;SDS011;21290;50.158;8.658;2023-12-20T14:20:08;10.00;;;2.45;;
35110;SDS011;21290;50.158;8.658;2023-12-20T14:22:35;7.03;;;2.35;;
35110;SDS011;21290;50.158;8.658;2023-12-20T14:25:03;10.50;;;1.95;;
35110;SDS011;21290;50.158;8.658;2023-12-20T14:27:30;11.18;;;2.03;;
35110;SDS011;21290;50.158;8.658;2023-12-20T14:29:57;10.10;;;2.40;;
35110;SDS011;21290;50.158;8.658;2023-12-20T14:32:24;7.60;;;2.42;;
35110;SDS011;21290;50.158;8.658;2023-12-20T14:34:53;6.82;;;2.05;;
35110;SDS011;21290;50.158;8.658;2023-12-20T14:37:21;5.38;;;1.52;;
35110;SDS011;21290;50.158;8.658;2023-12-20T14:39:48;10.23;;;2.28;;
35110;SDS011;21290;50.158;8.658;2023-12-20T14:42:15;7.05;;;1.70;;
35110;SDS011;21290;50.158;8.658;2023-12-20T14:44:42;9.90;;;2.28;;
35110;SDS011;21290;50.158;8.658;2023-12-20T14:47:10;7.28;;;1.67;;
35110;SDS011;21290;50.158;8.658;2023-12-20T14:49:37;4.95;;;1.05;;
35110;SDS011;21290;50.158;8.658;2023-12-20T14:52:04;5.45;;;1.60;;